createdAt,value
2017-02-19T00:00:54.677Z,3.58
2017-02-19T00:05:50.998Z,3.55
2017-02-19T00:10:47.214Z,3.53
2017-02-19T00:15:43.689Z,3.53
2017-02-19T00:20:40.162Z,3.50
2017-02-19T00:25:36.469Z,3.69
2017-02-19T00:30:32.842Z,3.55
2017-02-19T00:35:29.276Z,3.63
2017-02-19T00:40:25.354Z,3.53
2017-02-19T00:45:21.779Z,3.42
2017-02-19T00:50:18.308Z,3.32
2017-02-19T00:55:14.452Z,3.25
2017-02-19T01:00:11.531Z,3.25
2017-02-19T01:05:07.221Z,3.08
2017-02-19T01:10:03.411Z,3.10
2017-02-19T01:14:59.577Z,2.90
2017-02-19T01:19:56.154Z,2.83
2017-02-19T01:24:53.167Z,2.65
2017-02-19T01:29:49.538Z,2.68
2017-02-19T01:34:46.388Z,2.62
2017-02-19T01:39:42.550Z,2.56
2017-02-19T01:44:39.059Z,2.60
2017-02-19T01:49:35.289Z,2.71
2017-02-19T01:54:31.620Z,2.62
2017-02-19T01:59:27.984Z,2.65
2017-02-19T02:04:23.830Z,2.67
2017-02-19T02:09:21.301Z,2.83
2017-02-19T02:14:17.583Z,2.71
2017-02-19T02:19:14.006Z,2.68
2017-02-19T02:24:10.346Z,2.89
2017-02-19T02:29:06.701Z,2.95
2017-02-19T02:34:03.109Z,3.14
2017-02-19T02:38:59.502Z,3.21
2017-02-19T02:43:55.959Z,3.23
2017-02-19T02:48:52.215Z,3.34
2017-02-19T02:53:49.162Z,3.40
2017-02-19T02:58:45.492Z,3.53
2017-02-19T03:03:42.018Z,3.50
2017-02-19T03:08:38.410Z,3.55
2017-02-19T03:13:34.821Z,3.56
2017-02-19T03:18:31.210Z,3.70
2017-02-19T03:23:27.611Z,3.63
2017-02-19T03:28:24.753Z,3.65
2017-02-19T03:33:21.584Z,3.62
2017-02-19T03:38:17.908Z,3.66
2017-02-19T03:43:14.119Z,3.70
2017-02-19T03:48:11.753Z,3.68
2017-02-19T03:53:07.780Z,3.74
2017-02-19T03:58:04.554Z,3.60
2017-02-19T04:03:00.996Z,3.58
2017-02-19T04:07:57.676Z,3.50
2017-02-19T04:12:54.255Z,3.48
2017-02-19T04:17:50.657Z,3.34
2017-02-19T04:22:46.970Z,3.18
2017-02-19T04:27:43.424Z,3.26
2017-02-19T04:32:39.601Z,3.22
2017-02-19T04:37:36.200Z,3.26
2017-02-19T04:42:32.698Z,3.19
2017-02-19T04:47:28.931Z,3.16
2017-02-19T04:52:25.306Z,3.22
2017-02-19T04:57:21.983Z,3.04
2017-02-19T05:02:18.430Z,3.08
2017-02-19T05:07:14.848Z,3.11
2017-02-19T05:12:11.524Z,3.03
2017-02-19T05:17:07.741Z,2.93
2017-02-19T05:22:04.054Z,2.93
2017-02-19T05:32:03.449Z,3.14
2017-02-19T05:36:59.644Z,3.07
2017-02-19T05:41:55.831Z,3.19
2017-02-19T05:46:52.122Z,3.31
2017-02-19T05:56:49.933Z,3.37
2017-02-19T06:01:46.104Z,3.40
2017-02-19T06:06:42.455Z,3.28
2017-02-19T06:11:38.950Z,3.47
2017-02-19T06:16:35.286Z,3.55
2017-02-19T06:21:32.320Z,3.59
2017-02-19T06:26:29.841Z,3.68
2017-02-19T06:31:26.166Z,3.68
2017-02-19T06:36:22.565Z,3.68
2017-02-19T06:41:19.138Z,3.68
2017-02-19T06:46:16.173Z,3.70
2017-02-19T06:51:12.657Z,3.68
2017-02-19T06:56:09.623Z,3.69
2017-02-19T07:01:06.004Z,3.84
2017-02-19T07:06:03.063Z,3.80
2017-02-19T07:10:59.430Z,3.88
2017-02-19T07:15:57.128Z,3.99
2017-02-19T07:20:53.466Z,4.13
2017-02-19T07:25:50.036Z,4.20
2017-02-19T07:30:46.722Z,4.26
2017-02-19T07:35:43.196Z,4.37
2017-02-19T07:40:42.235Z,4.44
2017-02-19T07:45:38.164Z,4.50
2017-02-19T07:50:34.631Z,4.66
2017-02-19T07:55:30.917Z,4.70
2017-02-19T08:00:27.316Z,4.82
2017-02-19T08:05:23.788Z,4.92
2017-02-19T08:10:22.891Z,5.02
2017-02-19T08:15:18.779Z,5.04
2017-02-19T08:20:15.335Z,5.04
2017-02-19T08:25:12.322Z,5.20
2017-02-19T08:30:08.469Z,5.25
2017-02-19T08:35:05.046Z,5.32
2017-02-19T08:40:01.686Z,5.43
2017-02-19T08:44:58.167Z,5.54
2017-02-19T08:49:55.380Z,5.51
2017-02-19T08:54:51.504Z,5.59
2017-02-19T08:59:47.642Z,5.76
2017-02-19T09:04:44.138Z,5.79
2017-02-19T09:09:40.854Z,5.86
2017-02-19T09:14:37.392Z,5.80
2017-02-19T09:19:33.428Z,5.87
2017-02-19T09:24:30.201Z,5.90
2017-02-19T09:29:26.791Z,6.19
2017-02-19T09:34:23.049Z,6.12
2017-02-19T09:39:19.628Z,6.22
2017-02-19T09:44:15.847Z,6.33
2017-02-19T09:49:12.573Z,6.33
2017-02-19T09:54:09.555Z,6.54
2017-02-19T09:59:06.224Z,6.82
2017-02-19T10:04:02.785Z,6.85
2017-02-19T10:08:59.240Z,6.67
2017-02-19T10:13:55.863Z,6.81
2017-02-19T10:18:53.474Z,6.97
2017-02-19T10:23:50.166Z,6.99
2017-02-19T10:28:46.823Z,7.21
2017-02-19T10:33:43.314Z,7.10
2017-02-19T10:38:41.916Z,7.17
2017-02-19T10:43:37.771Z,7.13
2017-02-19T10:48:35.096Z,7.20
2017-02-19T10:53:31.374Z,7.10
2017-02-19T10:58:27.830Z,7.00
2017-02-19T11:03:24.303Z,6.79
2017-02-19T11:08:20.389Z,6.75
2017-02-19T11:13:16.610Z,6.64
2017-02-19T11:18:13.174Z,6.70
2017-02-19T11:23:09.658Z,6.64
2017-02-19T11:28:06.520Z,6.57
2017-02-19T11:33:03.246Z,6.41
2017-02-19T11:37:59.844Z,6.24
2017-02-19T11:42:56.395Z,6.27
2017-02-19T11:47:52.714Z,6.22
2017-02-19T11:52:49.103Z,6.26
2017-02-19T11:57:46.875Z,6.36
2017-02-19T12:02:43.385Z,6.35
2017-02-19T12:07:39.875Z,6.24
2017-02-19T12:12:36.301Z,6.09
2017-02-19T12:17:32.819Z,6.09
2017-02-19T12:22:29.318Z,6.17
2017-02-19T12:27:25.830Z,6.14
2017-02-19T12:32:22.249Z,6.19
2017-02-19T12:37:18.506Z,6.09
2017-02-19T12:42:15.816Z,6.08
2017-02-19T12:47:13.418Z,6.04
2017-02-19T12:52:09.462Z,5.98
2017-02-19T12:57:06.592Z,5.86
2017-02-19T13:02:02.793Z,5.84
2017-02-19T13:07:00.273Z,5.79
2017-02-19T13:11:56.450Z,5.84
2017-02-19T13:16:52.844Z,5.86
2017-02-19T13:21:49.452Z,5.79
2017-02-19T13:26:46.165Z,5.94
2017-02-19T13:31:42.630Z,5.98
2017-02-19T13:36:40.165Z,6.05
2017-02-19T13:41:36.346Z,6.07
2017-02-19T13:46:32.319Z,6.17
2017-02-19T13:51:28.695Z,5.99
2017-02-19T13:56:25.151Z,6.19
2017-02-19T14:01:21.905Z,6.27
2017-02-19T14:06:18.673Z,6.31
2017-02-19T14:11:15.232Z,6.36
2017-02-19T14:16:11.660Z,6.38
2017-02-19T14:21:08.186Z,6.38
2017-02-19T14:26:04.540Z,6.36
2017-02-19T14:31:01.870Z,6.20
2017-02-19T14:35:57.928Z,6.17
2017-02-19T14:40:53.974Z,6.14
2017-02-19T14:45:50.293Z,6.17
2017-02-19T14:50:46.682Z,6.14
2017-02-19T14:55:43.423Z,6.20
2017-02-19T15:00:39.726Z,6.26
2017-02-19T15:05:36.383Z,6.11
2017-02-19T15:10:32.699Z,6.16
2017-02-19T15:15:29.122Z,6.09
2017-02-19T15:20:26.335Z,6.11
2017-02-19T15:25:22.637Z,6.30
2017-02-19T15:30:19.084Z,6.22
2017-02-19T15:35:15.580Z,6.30
2017-02-19T15:40:11.961Z,6.33
2017-02-19T15:45:08.328Z,6.17
2017-02-19T15:50:04.696Z,6.30
2017-02-19T15:55:01.377Z,6.24
2017-02-19T15:59:57.894Z,6.24
2017-02-19T16:04:54.240Z,6.28
2017-02-19T16:09:50.732Z,6.28
2017-02-19T16:14:47.298Z,6.30
2017-02-19T16:19:44.182Z,6.28
2017-02-19T16:24:40.651Z,6.27
2017-02-19T16:29:37.030Z,6.33
2017-02-19T16:34:32.982Z,6.30
2017-02-19T16:39:30.000Z,6.33
2017-02-19T16:44:26.804Z,6.31
2017-02-19T16:49:24.330Z,6.38
2017-02-19T16:54:20.500Z,6.35
2017-02-19T16:59:17.942Z,6.36
2017-02-19T17:04:13.991Z,6.42
2017-02-19T17:09:10.856Z,6.36
2017-02-19T17:14:07.184Z,6.42
2017-02-19T17:19:03.937Z,6.46
2017-02-19T17:24:00.347Z,6.45
2017-02-19T17:28:57.202Z,6.52
2017-02-19T17:33:53.651Z,6.60
2017-02-19T17:38:50.626Z,6.59
2017-02-19T17:43:46.941Z,6.56
2017-02-19T17:48:43.162Z,6.52
2017-02-19T17:53:39.445Z,6.60
2017-02-19T17:58:35.807Z,6.59
2017-02-19T18:03:32.260Z,6.48
2017-02-19T18:08:28.971Z,6.56
2017-02-19T18:13:25.313Z,6.63
2017-02-19T18:18:21.863Z,6.62
2017-02-19T18:23:17.959Z,6.59
2017-02-19T18:28:14.294Z,6.56
2017-02-19T18:33:12.451Z,6.51
2017-02-19T18:38:08.493Z,6.62
2017-02-19T18:43:05.769Z,6.60
2017-02-19T18:48:01.963Z,6.60
2017-02-19T18:52:59.125Z,6.64
2017-02-19T18:57:55.251Z,6.60
2017-02-19T19:02:52.049Z,6.66
2017-02-19T19:07:48.516Z,6.72
2017-02-19T19:12:44.554Z,6.75
2017-02-19T19:17:40.994Z,6.87
2017-02-19T19:22:37.553Z,6.85
2017-02-19T19:27:34.225Z,6.81
2017-02-19T19:32:30.701Z,6.75
2017-02-19T19:37:27.086Z,6.67
2017-02-19T19:42:23.862Z,6.67
2017-02-19T19:47:20.328Z,6.70
2017-02-19T19:52:16.808Z,6.64
2017-02-19T19:57:13.913Z,6.70
2017-02-19T20:02:10.373Z,6.70
2017-02-19T20:07:06.906Z,6.74
2017-02-19T20:12:03.277Z,6.84
2017-02-19T20:16:59.669Z,6.81
2017-02-19T20:21:56.155Z,6.78
2017-02-19T20:26:52.769Z,6.87
2017-02-19T20:31:49.000Z,6.75
2017-02-19T20:36:45.378Z,6.77
2017-02-19T20:41:42.117Z,6.87
2017-02-19T20:46:38.563Z,6.87
2017-02-19T20:51:35.026Z,6.75
2017-02-19T20:56:31.420Z,6.82
2017-02-19T21:01:27.701Z,6.93
2017-02-19T21:06:24.105Z,6.82
2017-02-19T21:11:20.741Z,6.89
2017-02-19T21:16:17.569Z,6.95
2017-02-19T21:21:15.079Z,7.02
2017-02-19T21:26:11.126Z,7.03
2017-02-19T21:31:07.680Z,7.02
2017-02-19T21:36:03.989Z,7.05
2017-02-19T21:41:00.350Z,6.93
2017-02-19T21:45:56.891Z,7.02
2017-02-19T21:50:53.157Z,6.99
2017-02-19T21:55:50.111Z,6.97
2017-02-19T22:00:46.470Z,6.89
2017-02-19T22:05:42.856Z,6.96
2017-02-19T22:10:39.483Z,6.95
2017-02-19T22:15:36.051Z,6.99
2017-02-19T22:20:33.175Z,7.02
2017-02-19T22:25:29.428Z,7.07
2017-02-19T22:30:25.836Z,6.97
2017-02-19T22:35:22.278Z,7.02
2017-02-19T22:40:18.499Z,6.95
2017-02-19T22:45:14.925Z,6.96
2017-02-19T22:50:11.429Z,6.89
2017-02-19T22:55:07.917Z,6.79
2017-02-19T23:00:06.858Z,6.81
2017-02-19T23:05:02.688Z,6.87
2017-02-19T23:09:59.241Z,6.87
2017-02-19T23:14:55.673Z,6.87
2017-02-19T23:19:52.252Z,6.96
2017-02-19T23:24:48.609Z,6.85
2017-02-19T23:29:45.154Z,6.77
2017-02-19T23:34:41.510Z,6.74
2017-02-19T23:39:38.122Z,6.67
2017-02-19T23:44:36.924Z,6.79
2017-02-19T23:49:32.602Z,6.81
2017-02-19T23:54:29.592Z,6.78
2017-02-19T23:59:26.500Z,6.63
